createdAt,value
2019-01-11T00:06:01.435Z,0
2019-01-11T00:16:16.602Z,0
2019-01-11T00:26:30.906Z,0
2019-01-11T00:36:44.749Z,0
2019-01-11T00:47:00.016Z,0
2019-01-11T00:57:13.930Z,0
2019-01-11T01:07:27.841Z,0
2019-01-11T01:17:43.030Z,0
2019-01-11T01:27:57.408Z,0
2019-01-11T01:38:11.635Z,0
2019-01-11T01:48:26.007Z,0
2019-01-11T01:58:40.286Z,0
2019-01-11T02:08:54.171Z,0
2019-01-11T02:19:08.444Z,0
2019-01-11T02:29:22.521Z,0
2019-01-11T02:39:37.833Z,0
2019-01-11T02:49:51.848Z,0
2019-01-11T03:00:06.919Z,0
2019-01-11T03:10:21.550Z,0
2019-01-11T03:20:35.244Z,0
2019-01-11T03:30:49.174Z,0
2019-01-11T03:41:04.536Z,0
2019-01-11T03:51:18.519Z,0
2019-01-11T04:01:33.488Z,0
2019-01-11T04:11:47.537Z,0
2019-01-11T04:22:02.853Z,0
2019-01-11T04:32:17.138Z,0
2019-01-11T04:42:30.969Z,0
2019-01-11T04:52:45.608Z,0
2019-01-11T05:03:00.667Z,0
2019-01-11T05:13:16.321Z,0
2019-01-11T05:23:30.760Z,0
2019-01-11T05:33:44.995Z,0
2019-01-11T05:43:59.158Z,0
2019-01-11T05:54:13.367Z,0
2019-01-11T06:04:27.703Z,0
2019-01-11T06:14:41.971Z,0
2019-01-11T06:24:55.827Z,0
2019-01-11T06:35:10.084Z,0
2019-01-11T06:45:23.735Z,0
2019-01-11T06:55:39.193Z,0
2019-01-11T07:05:52.851Z,0
2019-01-11T07:16:06.663Z,0
2019-01-11T07:26:22.105Z,0
2019-01-11T07:36:37.056Z,0
2019-01-11T07:46:52.163Z,5
2019-01-11T07:57:05.794Z,15
2019-01-11T08:07:19.598Z,25
2019-01-11T08:17:35.258Z,20
2019-01-11T08:27:48.971Z,20
2019-01-11T08:38:04.304Z,30
2019-01-11T08:48:19.769Z,30
2019-01-11T08:58:34.009Z,50
2019-01-11T09:08:49.087Z,75
2019-01-11T09:19:03.332Z,90
2019-01-11T09:29:18.342Z,90
2019-01-11T09:39:33.870Z,110
2019-01-11T09:49:49.369Z,125
2019-01-11T10:00:04.640Z,75
2019-01-11T10:10:19.364Z,130
2019-01-11T10:20:34.031Z,125
2019-01-11T10:30:49.016Z,135
2019-01-11T10:41:03.752Z,90
2019-01-11T10:51:19.474Z,155
2019-01-11T11:01:34.021Z,90
2019-01-11T11:11:47.791Z,80
2019-01-11T11:22:01.789Z,80
2019-01-11T11:32:16.987Z,90
2019-01-11T11:42:31.732Z,100
2019-01-11T11:52:45.758Z,115
2019-01-11T12:02:59.443Z,105
2019-01-11T12:13:13.708Z,70
2019-01-11T12:23:27.984Z,80
2019-01-11T12:33:42.209Z,85
2019-01-11T12:43:55.961Z,70
2019-01-11T12:54:11.140Z,100
2019-01-11T13:04:24.877Z,110
2019-01-11T13:14:39.588Z,120
2019-01-11T13:24:54.416Z,90
2019-01-11T13:35:09.013Z,160
2019-01-11T13:45:23.800Z,130
2019-01-11T13:55:39.487Z,70
2019-01-11T14:05:54.945Z,85
2019-01-11T14:16:08.963Z,75
2019-01-11T14:26:22.816Z,50
2019-01-11T14:36:37.267Z,45
2019-01-11T14:46:52.437Z,55
2019-01-11T14:57:07.208Z,35
2019-01-11T15:07:22.475Z,45
2019-01-11T15:17:36.239Z,20
2019-01-11T15:27:51.830Z,25
2019-01-11T15:38:06.324Z,0
2019-01-11T15:48:20.655Z,0
2019-01-11T15:58:34.879Z,0
2019-01-11T16:08:50.319Z,0
2019-01-11T16:19:04.564Z,0
2019-01-11T16:29:19.921Z,0
2019-01-11T16:39:35.200Z,0
2019-01-11T16:49:49.588Z,0
2019-01-11T17:00:03.563Z,0
2019-01-11T17:10:18.836Z,0
2019-01-11T17:20:33.375Z,0
2019-01-11T17:30:47.912Z,0
2019-01-11T17:41:03.165Z,0
2019-01-11T17:51:18.110Z,0
2019-01-11T18:01:31.836Z,0
2019-01-11T18:11:46.284Z,0
2019-01-11T18:22:00.655Z,0
2019-01-11T18:32:15.079Z,0
2019-01-11T18:42:28.884Z,0
2019-01-11T18:52:43.183Z,0
2019-01-11T19:02:57.833Z,0
2019-01-11T19:13:12.838Z,0
2019-01-11T19:23:27.630Z,0
2019-01-11T19:33:41.464Z,0
2019-01-11T19:43:55.500Z,0
2019-01-11T19:54:11.123Z,0
2019-01-11T20:04:25.870Z,0
2019-01-11T20:14:40.183Z,0
2019-01-11T20:24:54.726Z,0
2019-01-11T20:35:09.437Z,0
2019-01-11T20:45:24.734Z,0
2019-01-11T20:55:39.926Z,0
2019-01-11T21:05:55.020Z,0
2019-01-11T21:16:09.275Z,0
2019-01-11T21:26:23.238Z,0
2019-01-11T21:36:38.160Z,0
2019-01-11T21:46:52.455Z,0
2019-01-11T21:57:08.128Z,0
2019-01-11T22:07:22.447Z,0
2019-01-11T22:17:37.937Z,0
2019-01-11T22:27:51.995Z,0
2019-01-11T22:38:06.981Z,0
2019-01-11T22:48:21.877Z,0
2019-01-11T22:58:36.346Z,0
2019-01-11T23:08:50.398Z,0
2019-01-11T23:19:04.781Z,0
2019-01-11T23:29:18.955Z,0
2019-01-11T23:39:33.499Z,0
2019-01-11T23:49:48.534Z,0
